sensor_id;sensor_type;location;lat;lon;timestamp;P1;durP1;ratioP1;P2;durP2;ratioP2
70363;SDS011;57785;43.898;1.886;2022-08-21T06:08:24;3.03;;;1.35;;
70363;SDS011;57785;43.898;1.886;2022-08-21T06:10:51;1.55;;;1.05;;
70363;SDS011;57785;43.898;1.886;2022-08-21T06:13:17;1.50;;;1.33;;
70363;SDS011;57785;43.898;1.886;2022-08-21T06:15:43;2.42;;;1.20;;
70363;SDS011;57785;43.898;1.886;2022-08-21T06:18:10;1.23;;;0.90;;
70363;SDS011;57785;43.898;1.886;2022-08-21T06:20:36;2.67;;;1.10;;
70363;SDS011;57785;43.898;1.886;2022-08-21T06:23:02;1.60;;;1.20;;
70363;SDS011;57785;43.898;1.886;2022-08-21T06:25:28;6.80;;;0.90;;
70363;SDS011;57785;43.898;1.886;2022-08-21T06:28:04;4.00;;;1.10;;
70363;SDS011;57785;43.898;1.886;2022-08-21T06:30:31;2.83;;;0.90;;
70363;SDS011;57785;43.898;1.886;2022-08-21T06:32:57;1.88;;;1.10;;
70363;SDS011;57785;43.898;1.886;2022-08-21T06:35:23;2.80;;;1.02;;
70363;SDS011;57785;43.898;1.886;2022-08-21T06:37:49;1.67;;;1.00;;
70363;SDS011;57785;43.898;1.886;2022-08-21T06:40:16;13.85;;;1.60;;
70363;SDS011;57785;43.898;1.886;2022-08-21T06:42:42;19.40;;;1.83;;
70363;SDS011;57785;43.898;1.886;2022-08-21T06:45:08;2.60;;;1.10;;
70363;SDS011;57785;43.898;1.886;2022-08-21T06:47:34;4.32;;;1.20;;
70363;SDS011;57785;43.898;1.886;2022-08-21T06:50:00;2.53;;;1.15;;
70363;SDS011;57785;43.898;1.886;2022-08-21T06:52:27;4.95;;;1.00;;
70363;SDS011;57785;43.898;1.886;2022-08-21T06:54:54;4.53;;;1.20;;
70363;SDS011;57785;43.898;1.886;2022-08-21T06:57:20;1.85;;;0.93;;
70363;SDS011;57785;43.898;1.886;2022-08-21T06:59:46;2.42;;;1.00;;
70363;SDS011;57785;43.898;1.886;2022-08-21T07:02:12;1.52;;;1.17;;
70363;SDS011;57785;43.898;1.886;2022-08-21T07:04:39;2.28;;;1.20;;
70363;SDS011;57785;43.898;1.886;2022-08-21T07:07:05;3.50;;;1.00;;
70363;SDS011;57785;43.898;1.886;2022-08-21T07:09:31;1.35;;;1.08;;
70363;SDS011;57785;43.898;1.886;2022-08-21T07:11:58;1.40;;;1.00;;
70363;SDS011;57785;43.898;1.886;2022-08-21T07:14:24;6.07;;;1.23;;
70363;SDS011;57785;43.898;1.886;2022-08-21T07:16:50;8.25;;;1.25;;
70363;SDS011;57785;43.898;1.886;2022-08-21T07:19:16;6.93;;;1.00;;
70363;SDS011;57785;43.898;1.886;2022-08-21T07:21:43;3.20;;;1.00;;
70363;SDS011;57785;43.898;1.886;2022-08-21T07:24:09;1.42;;;1.10;;
70363;SDS011;57785;43.898;1.886;2022-08-21T07:26:35;1.45;;;1.00;;
70363;SDS011;57785;43.898;1.886;2022-08-21T07:29:01;0.85;;;0.85;;
70363;SDS011;57785;43.898;1.886;2022-08-21T07:31:27;1.42;;;1.00;;
70363;SDS011;57785;43.898;1.886;2022-08-21T07:33:53;2.55;;;0.90;;
70363;SDS011;57785;43.898;1.886;2022-08-21T07:36:20;1.63;;;0.82;;
70363;SDS011;57785;43.898;1.886;2022-08-21T07:38:46;2.78;;;0.90;;
70363;SDS011;57785;43.898;1.886;2022-08-21T07:41:13;1.95;;;0.90;;
70363;SDS011;57785;43.898;1.886;2022-08-21T07:43:40;1.17;;;0.98;;
70363;SDS011;57785;43.898;1.886;2022-08-21T07:46:06;2.35;;;1.00;;
70363;SDS011;57785;43.898;1.886;2022-08-21T07:48:32;4.68;;;0.98;;
70363;SDS011;57785;43.898;1.886;2022-08-21T07:50:58;1.63;;;0.80;;
70363;SDS011;57785;43.898;1.886;2022-08-21T16:53:48;1.17;;;0.70;;
70363;SDS011;57785;43.898;1.886;2022-08-21T16:56:14;2.55;;;0.73;;
70363;SDS011;57785;43.898;1.886;2022-08-21T16:58:41;1.23;;;0.70;;
70363;SDS011;57785;43.898;1.886;2022-08-21T17:01:09;1.15;;;0.60;;
70363;SDS011;57785;43.898;1.886;2022-08-21T17:03:37;0.73;;;0.60;;
70363;SDS011;57785;43.898;1.886;2022-08-21T17:06:04;1.42;;;0.63;;
70363;SDS011;57785;43.898;1.886;2022-08-21T17:08:30;2.35;;;0.68;;
70363;SDS011;57785;43.898;1.886;2022-08-21T17:10:56;0.63;;;0.55;;
70363;SDS011;57785;43.898;1.886;2022-08-21T17:13:23;0.73;;;0.70;;
70363;SDS011;57785;43.898;1.886;2022-08-21T17:15:50;3.03;;;0.70;;
70363;SDS011;57785;43.898;1.886;2022-08-21T17:18:17;2.42;;;0.57;;
70363;SDS011;57785;43.898;1.886;2022-08-21T17:20:44;1.27;;;0.70;;
70363;SDS011;57785;43.898;1.886;2022-08-21T17:23:11;1.05;;;0.70;;
70363;SDS011;57785;43.898;1.886;2022-08-21T17:25:37;1.17;;;0.60;;
70363;SDS011;57785;43.898;1.886;2022-08-21T17:28:04;0.60;;;0.60;;
70363;SDS011;57785;43.898;1.886;2022-08-21T17:30:31;1.98;;;0.50;;
70363;SDS011;57785;43.898;1.886;2022-08-21T17:32:57;0.95;;;0.50;;
70363;SDS011;57785;43.898;1.886;2022-08-21T17:35:24;0.77;;;0.70;;
70363;SDS011;57785;43.898;1.886;2022-08-21T17:37:50;0.77;;;0.60;;
70363;SDS011;57785;43.898;1.886;2022-08-21T17:40:17;0.60;;;0.60;;
70363;SDS011;57785;43.898;1.886;2022-08-21T17:42:44;4.90;;;0.70;;
70363;SDS011;57785;43.898;1.886;2022-08-21T17:45:16;0.63;;;0.60;;
70363;SDS011;57785;43.898;1.886;2022-08-21T17:47:42;0.55;;;0.50;;
70363;SDS011;57785;43.898;1.886;2022-08-21T17:50:09;0.50;;;0.50;;
70363;SDS011;57785;43.898;1.886;2022-08-21T17:52:35;1.52;;;0.88;;
70363;SDS011;57785;43.898;1.886;2022-08-21T17:55:02;0.60;;;0.60;;
70363;SDS011;57785;43.898;1.886;2022-08-21T17:57:29;0.70;;;0.60;;
70363;SDS011;57785;43.898;1.886;2022-08-21T17:59:58;1.17;;;0.60;;
70363;SDS011;57785;43.898;1.886;2022-08-21T18:02:24;0.73;;;0.70;;
70363;SDS011;57785;43.898;1.886;2022-08-21T18:04:51;2.45;;;0.60;;
70363;SDS011;57785;43.898;1.886;2022-08-21T18:07:19;0.90;;;0.57;;
70363;SDS011;57785;43.898;1.886;2022-08-21T18:09:45;10.25;;;0.80;;
70363;SDS011;57785;43.898;1.886;2022-08-21T18:12:12;0.50;;;0.50;;
70363;SDS011;57785;43.898;1.886;2022-08-21T18:14:38;2.10;;;0.80;;
70363;SDS011;57785;43.898;1.886;2022-08-21T18:17:08;0.88;;;0.70;;
70363;SDS011;57785;43.898;1.886;2022-08-21T18:19:34;3.92;;;0.70;;
70363;SDS011;57785;43.898;1.886;2022-08-21T18:22:00;1.05;;;0.60;;
70363;SDS011;57785;43.898;1.886;2022-08-21T18:24:30;2.70;;;0.68;;
70363;SDS011;57785;43.898;1.886;2022-08-21T18:26:57;0.85;;;0.70;;
70363;SDS011;57785;43.898;1.886;2022-08-21T18:29:23;0.60;;;0.57;;
70363;SDS011;57785;43.898;1.886;2022-08-21T18:31:49;1.77;;;0.75;;
70363;SDS011;57785;43.898;1.886;2022-08-21T18:36:41;0.60;;;0.60;;
70363;SDS011;57785;43.898;1.886;2022-08-21T18:39:07;3.97;;;0.80;;
70363;SDS011;57785;43.898;1.886;2022-08-21T18:41:33;3.00;;;0.80;;
70363;SDS011;57785;43.898;1.886;2022-08-21T18:43:59;4.72;;;0.70;;
70363;SDS011;57785;43.898;1.886;2022-08-21T18:46:25;2.70;;;0.60;;
70363;SDS011;57785;43.898;1.886;2022-08-21T18:48:52;3.03;;;0.70;;
70363;SDS011;57785;43.898;1.886;2022-08-21T18:51:18;0.60;;;0.60;;
70363;SDS011;57785;43.898;1.886;2022-08-21T18:53:44;0.70;;;0.70;;
70363;SDS011;57785;43.898;1.886;2022-08-21T18:56:10;1.77;;;0.65;;
70363;SDS011;57785;43.898;1.886;2022-08-21T18:58:36;2.08;;;0.70;;
70363;SDS011;57785;43.898;1.886;2022-08-21T19:01:03;1.02;;;0.85;;
70363;SDS011;57785;43.898;1.886;2022-08-21T19:03:29;2.78;;;0.93;;
70363;SDS011;57785;43.898;1.886;2022-08-21T19:05:55;0.75;;;0.70;;
70363;SDS011;57785;43.898;1.886;2022-08-21T19:08:22;1.25;;;0.80;;
70363;SDS011;57785;43.898;1.886;2022-08-21T19:10:49;1.00;;;0.70;;
70363;SDS011;57785;43.898;1.886;2022-08-21T19:13:17;1.33;;;0.80;;
70363;SDS011;57785;43.898;1.886;2022-08-21T19:15:44;1.23;;;0.70;;
70363;SDS011;57785;43.898;1.886;2022-08-21T19:18:14;3.67;;;0.80;;
70363;SDS011;57785;43.898;1.886;2022-08-21T19:20:40;3.03;;;0.77;;
70363;SDS011;57785;43.898;1.886;2022-08-21T19:23:09;1.08;;;0.70;;
70363;SDS011;57785;43.898;1.886;2022-08-21T19:25:36;0.88;;;0.70;;
70363;SDS011;57785;43.898;1.886;2022-08-21T19:28:05;1.42;;;1.00;;
70363;SDS011;57785;43.898;1.886;2022-08-21T19:30:33;0.95;;;0.70;;
70363;SDS011;57785;43.898;1.886;2022-08-21T19:32:59;1.13;;;0.80;;
70363;SDS011;57785;43.898;1.886;2022-08-21T19:35:25;1.02;;;0.60;;
70363;SDS011;57785;43.898;1.886;2022-08-21T19:37:51;1.55;;;0.75;;
70363;SDS011;57785;43.898;1.886;2022-08-21T19:40:18;1.55;;;0.85;;
70363;SDS011;57785;43.898;1.886;2022-08-21T19:42:44;2.33;;;0.85;;
70363;SDS011;57785;43.898;1.886;2022-08-21T19:45:11;2.45;;;0.90;;
70363;SDS011;57785;43.898;1.886;2022-08-21T19:47:38;2.20;;;0.80;;
70363;SDS011;57785;43.898;1.886;2022-08-21T19:50:06;1.75;;;0.77;;
70363;SDS011;57785;43.898;1.886;2022-08-21T19:52:33;2.17;;;0.70;;
70363;SDS011;57785;43.898;1.886;2022-08-21T19:54:59;0.77;;;0.77;;
70363;SDS011;57785;43.898;1.886;2022-08-21T19:57:25;1.35;;;0.80;;
70363;SDS011;57785;43.898;1.886;2022-08-21T19:59:51;2.67;;;0.93;;
70363;SDS011;57785;43.898;1.886;2022-08-21T20:02:17;1.17;;;0.80;;
70363;SDS011;57785;43.898;1.886;2022-08-21T20:04:43;2.05;;;1.00;;
70363;SDS011;57785;43.898;1.886;2022-08-21T20:07:10;1.52;;;0.90;;
70363;SDS011;57785;43.898;1.886;2022-08-21T20:09:36;0.90;;;0.90;;
70363;SDS011;57785;43.898;1.886;2022-08-21T20:12:06;2.90;;;0.85;;
70363;SDS011;57785;43.898;1.886;2022-08-21T20:14:32;2.20;;;1.00;;
70363;SDS011;57785;43.898;1.886;2022-08-21T20:17:04;2.45;;;1.00;;
70363;SDS011;57785;43.898;1.886;2022-08-21T20:19:32;4.00;;;1.08;;
70363;SDS011;57785;43.898;1.886;2022-08-21T20:21:58;0.98;;;0.90;;
70363;SDS011;57785;43.898;1.886;2022-08-21T20:24:24;2.22;;;1.20;;
70363;SDS011;57785;43.898;1.886;2022-08-21T20:26:50;3.42;;;1.20;;
70363;SDS011;57785;43.898;1.886;2022-08-21T20:29:17;2.22;;;1.05;;
70363;SDS011;57785;43.898;1.886;2022-08-21T20:31:43;2.28;;;1.20;;
70363;SDS011;57785;43.898;1.886;2022-08-21T20:34:09;1.15;;;1.05;;
70363;SDS011;57785;43.898;1.886;2022-08-21T20:36:35;3.45;;;1.20;;
70363;SDS011;57785;43.898;1.886;2022-08-21T20:39:02;3.70;;;1.10;;
70363;SDS011;57785;43.898;1.886;2022-08-21T20:41:29;2.47;;;1.20;;
70363;SDS011;57785;43.898;1.886;2022-08-21T20:43:56;3.50;;;1.40;;
70363;SDS011;57785;43.898;1.886;2022-08-21T20:46:23;1.92;;;1.40;;
70363;SDS011;57785;43.898;1.886;2022-08-21T20:48:50;0.93;;;0.93;;
70363;SDS011;57785;43.898;1.886;2022-08-21T20:51:21;2.80;;;1.30;;
70363;SDS011;57785;43.898;1.886;2022-08-21T20:56:48;2.83;;;1.38;;
70363;SDS011;57785;43.898;1.886;2022-08-21T21:01:49;2.13;;;1.35;;
70363;SDS011;57785;43.898;1.886;2022-08-21T21:04:26;4.07;;;1.15;;
70363;SDS011;57785;43.898;1.886;2022-08-21T21:06:57;2.22;;;1.30;;
70363;SDS011;57785;43.898;1.886;2022-08-21T21:09:30;1.55;;;1.20;;
70363;SDS011;57785;43.898;1.886;2022-08-21T21:11:58;1.73;;;1.20;;
70363;SDS011;57785;43.898;1.886;2022-08-21T21:14:32;1.60;;;1.30;;
70363;SDS011;57785;43.898;1.886;2022-08-21T21:17:01;2.78;;;1.23;;
70363;SDS011;57785;43.898;1.886;2022-08-21T21:19:41;2.35;;;1.20;;
70363;SDS011;57785;43.898;1.886;2022-08-21T21:22:19;1.38;;;1.27;;
70363;SDS011;57785;43.898;1.886;2022-08-21T21:27:56;2.85;;;1.17;;
70363;SDS011;57785;43.898;1.886;2022-08-21T21:30:26;3.97;;;1.20;;
70363;SDS011;57785;43.898;1.886;2022-08-21T21:32:53;6.45;;;1.35;;
70363;SDS011;57785;43.898;1.886;2022-08-21T21:35:19;3.40;;;1.40;;
70363;SDS011;57785;43.898;1.886;2022-08-21T21:45:23;4.55;;;1.50;;
70363;SDS011;57785;43.898;1.886;2022-08-21T21:50:54;1.65;;;1.17;;
70363;SDS011;57785;43.898;1.886;2022-08-21T21:56:05;3.20;;;1.10;;
70363;SDS011;57785;43.898;1.886;2022-08-21T22:01:10;1.40;;;1.15;;
70363;SDS011;57785;43.898;1.886;2022-08-21T22:06:29;1.60;;;1.17;;
70363;SDS011;57785;43.898;1.886;2022-08-21T22:14:12;3.13;;;1.35;;
70363;SDS011;57785;43.898;1.886;2022-08-21T22:16:39;4.82;;;1.35;;
70363;SDS011;57785;43.898;1.886;2022-08-21T22:19:12;2.22;;;1.40;;
70363;SDS011;57785;43.898;1.886;2022-08-21T22:21:42;2.28;;;1.25;;
70363;SDS011;57785;43.898;1.886;2022-08-21T22:24:13;1.90;;;1.15;;
70363;SDS011;57785;43.898;1.886;2022-08-21T22:26:41;1.50;;;1.10;;
70363;SDS011;57785;43.898;1.886;2022-08-21T22:29:10;2.03;;;1.15;;
70363;SDS011;57785;43.898;1.886;2022-08-21T22:31:38;2.65;;;1.20;;
70363;SDS011;57785;43.898;1.886;2022-08-21T22:34:12;1.60;;;1.27;;
70363;SDS011;57785;43.898;1.886;2022-08-21T22:37:02;1.65;;;1.17;;
70363;SDS011;57785;43.898;1.886;2022-08-21T22:39:33;1.80;;;1.10;;
70363;SDS011;57785;43.898;1.886;2022-08-21T22:42:08;1.40;;;1.10;;
70363;SDS011;57785;43.898;1.886;2022-08-21T22:44:34;1.83;;;1.30;;
70363;SDS011;57785;43.898;1.886;2022-08-21T22:47:11;2.58;;;1.00;;
70363;SDS011;57785;43.898;1.886;2022-08-21T22:49:45;4.03;;;1.20;;
70363;SDS011;57785;43.898;1.886;2022-08-21T22:52:26;1.58;;;1.10;;
70363;SDS011;57785;43.898;1.886;2022-08-21T22:54:54;3.15;;;1.00;;
70363;SDS011;57785;43.898;1.886;2022-08-21T22:59:52;3.75;;;1.17;;
70363;SDS011;57785;43.898;1.886;2022-08-21T23:04:47;1.55;;;1.17;;
